Дата Пункты Температура Давл., мм. Влажн., % Ветер Погодные явления
Воздуха Воды Направл. Скорость
31.08.18 09:00 Одесса 26.0 25.0 759 44 З 1 21 ЧАС
31.08.18 06:00 Одесса 32.0 24.0 758 26 Ю 1 18 ЧАСОВ
31.08.18 03:00 Одесса 32.0 24.0 758 30 В 1 15 ЧАСОВ
31.08.18 12:00 Одесса 31.0 24.0 758 36 С 2 12 ЧАСОВ
31.08.18 09:00 Одесса 24.0 24.0 758 60 С-З 1 09 ЧАСОВ
31.08.18 06:00 Одесса 21.0 23.0 758 64 С-З 3 06 ЧАСОВ
31.08.18 03:00 Одесса 23.0 23.0 758 52 С-З 1 03 ЧАСА
30.08.18 09:00 Одесса 26.0 25.0 758 40 С-З 2 21 ЧАС
30.08.18 06:00 Одесса 31.0 25.0 757 31 Ю 1 18 ЧАСОВ
30.08.18 03:00 Одесса 33.0 25.0 757 28 С 1 15 ЧАСОВ
30.08.18 12:00 Одесса 30.0 24.0 757 39 С 2 12 ЧАСОВ
30.08.18 09:00 Одесса 22.0 24.0 757 66 С-З 1 09 ЧАСОВ
30.08.18 06:00 Одесса 19.0 24.0 757 78 С-З 3 06 ЧАСОВ
30.08.18 03:00 Одесса 21.0 24.0 757 70 С-З 3 03 ЧАСА
29.08.18 09:00 Одесса 27.0 24.0 756 33 С-З 2 21 ЧАС
29.08.18 06:00 Одесса 30.0 24.0 756 22 Ю-З 1 18 ЧАСОВ
29.08.18 03:00 Одесса 33.0 24.0 756 20 В 1 15 ЧАСОВ
29.08.18 12:00 Одесса 30.0 24.0 757 34 С 1 12 ЧАСОВ
29.08.18 09:00 Одесса 25.0 24.0 756 54 С-З 2 09 ЧАСОВ
29.08.18 06:00 Одесса 21.0 24.0 756 57 С-З 3 06 ЧАСОВ
Количество строк
1 2 3 4 5 6 7 8 9 10
Page 9 of 407